createdAt,value
2023-02-19T00:00:52.768Z,0.10
2023-02-19T00:11:01.942Z,0.20
2023-02-19T00:31:14.374Z,0.20
2023-02-19T00:41:22.544Z,0.20
2023-02-19T00:51:28.932Z,0.30
2023-02-19T01:01:32.416Z,1.20
2023-02-19T01:11:37.053Z,1.70
2023-02-19T01:21:41.656Z,1.80
2023-02-19T01:31:47.230Z,2.10
2023-02-19T01:41:50.488Z,1.30
2023-02-19T01:51:59.705Z,0.60
2023-02-19T02:12:09.089Z,0.57
2023-02-19T02:22:20.187Z,0.27
2023-02-19T02:32:28.760Z,0.60
2023-02-19T02:42:34.651Z,0.70
2023-02-19T02:53:03.566Z,1.10
2023-02-19T03:03:08.496Z,1.50
2023-02-19T03:13:34.725Z,1.70
2023-02-19T03:23:56.638Z,3.00
2023-02-19T03:34:04.583Z,3.90
2023-02-19T03:44:13.953Z,3.70
2023-02-19T03:54:22.597Z,4.20
2023-02-19T04:04:30.935Z,4.73
2023-02-19T04:14:40.569Z,5.07
2023-02-19T04:24:48.871Z,5.50
2023-02-19T04:34:54.403Z,6.13
2023-02-19T04:44:57.521Z,5.47
2023-02-19T04:55:02.185Z,4.60
2023-02-19T05:05:05.400Z,5.43
2023-02-19T05:15:09.905Z,5.17
2023-02-19T05:25:12.857Z,5.67
2023-02-19T05:35:17.329Z,6.17
2023-02-19T05:45:20.220Z,6.70
2023-02-19T05:55:24.681Z,6.67
2023-02-19T06:05:27.833Z,7.97
2023-02-19T06:15:32.285Z,8.07
2023-02-19T06:25:35.310Z,8.33
2023-02-19T06:35:39.627Z,8.53
2023-02-19T06:45:43.524Z,8.30
2023-02-19T06:55:56.663Z,7.80
2023-02-19T07:06:00.753Z,7.97
2023-02-19T07:16:08.829Z,8.27
2023-02-19T07:26:13.687Z,8.07
2023-02-19T07:36:20.019Z,8.40
2023-02-19T07:46:23.847Z,9.30
2023-02-19T07:56:28.896Z,9.40
2023-02-19T08:06:31.577Z,8.47
2023-02-19T08:16:43.068Z,8.03
2023-02-19T08:26:46.550Z,6.67
2023-02-19T08:36:50.855Z,8.33
2023-02-19T08:46:53.791Z,9.10
2023-02-19T08:56:58.197Z,9.10
2023-02-19T09:07:01.010Z,9.37
2023-02-19T09:17:07.011Z,8.97
2023-02-19T09:27:10.467Z,8.80
2023-02-19T09:37:14.557Z,9.47
2023-02-19T09:47:21.375Z,8.47
2023-02-19T09:57:27.352Z,8.87
2023-02-19T10:07:39.144Z,8.87
2023-02-19T10:17:43.596Z,8.10
2023-02-19T10:27:46.870Z,7.83
2023-02-19T10:37:52.739Z,6.23
2023-02-19T10:47:56.078Z,6.27
2023-02-19T10:58:22.754Z,4.60
2023-02-19T11:08:26.783Z,3.93
2023-02-19T11:18:33.544Z,3.57
2023-02-19T11:28:39.693Z,4.00
2023-02-19T11:38:45.295Z,4.60
2023-02-19T11:48:55.950Z,4.00
2023-02-19T11:59:04.057Z,3.30
2023-02-19T12:09:24.011Z,3.40
2023-02-19T12:19:59.959Z,3.30
2023-02-19T12:30:19.046Z,3.77
2023-02-19T12:40:34.827Z,5.60
2023-02-19T12:50:40.803Z,5.90
2023-02-19T13:00:50.652Z,3.87
2023-02-19T13:10:58.524Z,4.23
2023-02-19T13:21:03.998Z,3.07
2023-02-19T13:31:22.754Z,3.00
2023-02-19T13:41:32.785Z,10.80
2023-02-19T13:51:49.153Z,3.70
2023-02-19T14:02:26.577Z,4.00
2023-02-19T14:12:33.956Z,3.83
2023-02-19T14:23:01.538Z,3.33
2023-02-19T14:33:10.981Z,3.13
2023-02-19T14:43:18.240Z,3.60
2023-02-19T14:53:24.582Z,2.17
2023-02-19T15:03:32.443Z,2.50
2023-02-19T15:13:36.712Z,3.47
2023-02-19T15:23:42.166Z,4.53
2023-02-19T15:33:52.781Z,4.47
2023-02-19T15:44:06.755Z,5.20
2023-02-19T15:54:18.312Z,4.40
2023-02-19T16:04:22.668Z,4.60
2023-02-19T16:14:31.666Z,3.93
2023-02-19T16:24:41.728Z,3.80
2023-02-19T16:34:47.366Z,4.57
2023-02-19T16:44:51.626Z,7.87
2023-02-19T16:54:54.689Z,4.77
2023-02-19T17:04:59.190Z,4.80
2023-02-19T17:15:02.115Z,4.80
2023-02-19T17:25:06.867Z,12.17
2023-02-19T17:35:10.472Z,8.47
2023-02-19T17:45:14.850Z,6.70
2023-02-19T17:55:20.141Z,7.33
2023-02-19T18:05:26.291Z,7.70
2023-02-19T18:15:29.340Z,8.00
2023-02-19T18:25:33.590Z,9.10
2023-02-19T18:35:36.354Z,8.97
2023-02-19T18:45:40.678Z,8.27
2023-02-19T18:55:43.615Z,8.13
2023-02-19T19:05:48.131Z,7.73
2023-02-19T19:15:51.851Z,8.87
2023-02-19T19:25:56.094Z,8.03
2023-02-19T19:35:59.023Z,7.50
2023-02-19T19:46:05.199Z,6.87
2023-02-19T19:56:09.151Z,5.80
2023-02-19T20:06:13.467Z,6.10
2023-02-19T20:16:16.469Z,5.23
2023-02-19T20:26:26.372Z,5.53
2023-02-19T20:36:29.627Z,5.67
2023-02-19T20:46:34.514Z,5.67
2023-02-19T20:56:37.389Z,5.17
2023-02-19T21:06:41.647Z,5.67
2023-02-19T21:16:44.787Z,6.27
2023-02-19T21:26:49.275Z,7.03
2023-02-19T21:36:52.831Z,7.23
2023-02-19T21:46:57.167Z,8.13
2023-02-19T21:57:03.702Z,7.77
2023-02-19T22:07:08.006Z,8.80
2023-02-19T22:17:10.830Z,8.43
2023-02-19T22:27:14.943Z,7.50
2023-02-19T22:37:17.851Z,8.23
2023-02-19T22:47:22.127Z,8.13
2023-02-19T22:57:24.938Z,8.93
2023-02-19T23:07:29.842Z,8.07
2023-02-19T23:17:32.749Z,8.30
2023-02-19T23:27:36.823Z,8.17
2023-02-19T23:37:39.725Z,8.13
2023-02-19T23:47:44.238Z,9.37
2023-02-19T23:57:47.299Z,9.73
